sensor_id;sensor_type;location;lat;lon;timestamp;temperature;humidity
63219;DHT22;49320;52.512;13.448;2022-07-06T00:00:50;20.70;44.90
63219;DHT22;49320;52.512;13.448;2022-07-06T00:03:18;20.70;45.10
63219;DHT22;49320;52.512;13.448;2022-07-06T00:05:45;20.60;45.00
63219;DHT22;49320;52.512;13.448;2022-07-06T00:08:11;20.60;45.10
63219;DHT22;49320;52.512;13.448;2022-07-06T00:10:38;20.60;45.30
63219;DHT22;49320;52.512;13.448;2022-07-06T00:13:05;20.60;45.50
63219;DHT22;49320;52.512;13.448;2022-07-06T00:15:32;20.60;45.60
63219;DHT22;49320;52.512;13.448;2022-07-06T00:17:59;20.50;45.40
63219;DHT22;49320;52.512;13.448;2022-07-06T00:20:26;20.50;45.60
63219;DHT22;49320;52.512;13.448;2022-07-06T00:22:53;20.50;45.70
63219;DHT22;49320;52.512;13.448;2022-07-06T00:25:20;20.50;45.70
63219;DHT22;49320;52.512;13.448;2022-07-06T00:27:47;20.50;45.90
63219;DHT22;49320;52.512;13.448;2022-07-06T00:30:14;20.50;46.00
63219;DHT22;49320;52.512;13.448;2022-07-06T00:32:40;20.50;46.10
63219;DHT22;49320;52.512;13.448;2022-07-06T00:35:07;20.50;46.20
63219;DHT22;49320;52.512;13.448;2022-07-06T00:37:34;20.50;46.10
63219;DHT22;49320;52.512;13.448;2022-07-06T00:40:01;20.50;46.20
63219;DHT22;49320;52.512;13.448;2022-07-06T00:42:28;20.40;46.30
63219;DHT22;49320;52.512;13.448;2022-07-06T00:44:55;20.40;46.40
63219;DHT22;49320;52.512;13.448;2022-07-06T00:47:22;20.40;46.40
63219;DHT22;49320;52.512;13.448;2022-07-06T00:49:49;20.40;46.80
63219;DHT22;49320;52.512;13.448;2022-07-06T00:52:34;20.40;46.60
63219;DHT22;49320;52.512;13.448;2022-07-06T00:55:01;20.40;46.60
63219;DHT22;49320;52.512;13.448;2022-07-06T00:57:28;20.30;46.70
63219;DHT22;49320;52.512;13.448;2022-07-06T00:59:56;20.30;46.80
63219;DHT22;49320;52.512;13.448;2022-07-06T01:02:23;20.30;47.00
63219;DHT22;49320;52.512;13.448;2022-07-06T01:04:50;20.20;46.80
63219;DHT22;49320;52.512;13.448;2022-07-06T01:07:18;20.20;47.10
63219;DHT22;49320;52.512;13.448;2022-07-06T01:09:45;20.20;47.10
63219;DHT22;49320;52.512;13.448;2022-07-06T01:12:11;20.20;47.10
63219;DHT22;49320;52.512;13.448;2022-07-06T01:14:39;20.20;47.30
63219;DHT22;49320;52.512;13.448;2022-07-06T01:17:07;20.20;47.50
63219;DHT22;49320;52.512;13.448;2022-07-06T01:19:34;20.20;47.50
63219;DHT22;49320;52.512;13.448;2022-07-06T01:22:01;20.20;47.40
63219;DHT22;49320;52.512;13.448;2022-07-06T01:24:28;20.20;47.50
63219;DHT22;49320;52.512;13.448;2022-07-06T01:26:55;20.20;47.40
63219;DHT22;49320;52.512;13.448;2022-07-06T01:29:22;20.10;47.60
63219;DHT22;49320;52.512;13.448;2022-07-06T01:36:23;20.20;48.50
63219;DHT22;49320;52.512;13.448;2022-07-06T01:38:54;20.10;48.50
63219;DHT22;49320;52.512;13.448;2022-07-06T01:41:24;20.10;48.00
63219;DHT22;49320;52.512;13.448;2022-07-06T01:43:52;20.00;47.80
63219;DHT22;49320;52.512;13.448;2022-07-06T01:46:19;20.10;48.10
63219;DHT22;49320;52.512;13.448;2022-07-06T01:48:46;20.10;48.10
63219;DHT22;49320;52.512;13.448;2022-07-06T01:51:14;20.00;48.30
63219;DHT22;49320;52.512;13.448;2022-07-06T01:53:41;20.10;48.30
63219;DHT22;49320;52.512;13.448;2022-07-06T01:56:09;20.00;48.20
63219;DHT22;49320;52.512;13.448;2022-07-06T01:58:36;20.00;48.20
63219;DHT22;49320;52.512;13.448;2022-07-06T02:01:10;20.00;48.40
63219;DHT22;49320;52.512;13.448;2022-07-06T02:03:39;20.10;48.60
63219;DHT22;49320;52.512;13.448;2022-07-06T02:06:07;20.00;48.30
63219;DHT22;49320;52.512;13.448;2022-07-06T02:08:35;20.10;48.30
63219;DHT22;49320;52.512;13.448;2022-07-06T02:11:04;19.00;47.80
63219;DHT22;49320;52.512;13.448;2022-07-06T02:13:32;20.10;48.40
63219;DHT22;49320;52.512;13.448;2022-07-06T02:15:59;20.20;48.40
63219;DHT22;49320;52.512;13.448;2022-07-06T02:18:26;20.10;48.80
63219;DHT22;49320;52.512;13.448;2022-07-06T02:20:54;20.20;48.60
63219;DHT22;49320;52.512;13.448;2022-07-06T02:23:21;20.10;48.30
63219;DHT22;49320;52.512;13.448;2022-07-06T02:25:47;20.20;48.30
63219;DHT22;49320;52.512;13.448;2022-07-06T02:28:14;20.20;48.80
63219;DHT22;49320;52.512;13.448;2022-07-06T02:30:41;20.20;48.90
63219;DHT22;49320;52.512;13.448;2022-07-06T02:33:08;20.30;48.80
63219;DHT22;49320;52.512;13.448;2022-07-06T02:35:34;20.20;48.70
63219;DHT22;49320;52.512;13.448;2022-07-06T02:38:01;20.20;49.00
63219;DHT22;49320;52.512;13.448;2022-07-06T02:40:28;20.20;49.50
63219;DHT22;49320;52.512;13.448;2022-07-06T02:42:55;20.20;49.80
63219;DHT22;49320;52.512;13.448;2022-07-06T02:45:22;20.20;50.20
63219;DHT22;49320;52.512;13.448;2022-07-06T02:47:49;20.20;50.10
63219;DHT22;49320;52.512;13.448;2022-07-06T02:50:17;20.10;50.20
63219;DHT22;49320;52.512;13.448;2022-07-06T02:52:44;20.00;50.50
63219;DHT22;49320;52.512;13.448;2022-07-06T02:55:11;19.90;51.00
63219;DHT22;49320;52.512;13.448;2022-07-06T02:57:38;19.90;51.40
63219;DHT22;49320;52.512;13.448;2022-07-06T03:00:05;19.80;51.60
63219;DHT22;49320;52.512;13.448;2022-07-06T03:02:33;19.70;51.60
63219;DHT22;49320;52.512;13.448;2022-07-06T03:04:59;19.60;51.70
63219;DHT22;49320;52.512;13.448;2022-07-06T03:07:26;19.50;51.90
63219;DHT22;49320;52.512;13.448;2022-07-06T03:09:53;19.50;52.00
63219;DHT22;49320;52.512;13.448;2022-07-06T03:12:20;19.50;52.20
63219;DHT22;49320;52.512;13.448;2022-07-06T03:14:47;19.40;52.80
63219;DHT22;49320;52.512;13.448;2022-07-06T03:17:14;19.40;52.80
63219;DHT22;49320;52.512;13.448;2022-07-06T03:19:41;19.40;52.80
63219;DHT22;49320;52.512;13.448;2022-07-06T03:22:08;19.40;52.90
63219;DHT22;49320;52.512;13.448;2022-07-06T03:24:35;19.40;52.90
63219;DHT22;49320;52.512;13.448;2022-07-06T03:27:02;19.40;53.00
63219;DHT22;49320;52.512;13.448;2022-07-06T03:29:29;19.30;53.10
63219;DHT22;49320;52.512;13.448;2022-07-06T03:31:56;19.30;53.20
63219;DHT22;49320;52.512;13.448;2022-07-06T03:34:23;19.30;53.40
63219;DHT22;49320;52.512;13.448;2022-07-06T03:36:50;19.30;53.50
63219;DHT22;49320;52.512;13.448;2022-07-06T03:39:17;19.30;53.40
63219;DHT22;49320;52.512;13.448;2022-07-06T03:41:43;19.40;53.50
63219;DHT22;49320;52.512;13.448;2022-07-06T03:44:10;19.30;54.00
63219;DHT22;49320;52.512;13.448;2022-07-06T03:46:37;19.30;53.70
63219;DHT22;49320;52.512;13.448;2022-07-06T03:49:04;19.30;53.90
63219;DHT22;49320;52.512;13.448;2022-07-06T03:51:31;19.30;53.50
63219;DHT22;49320;52.512;13.448;2022-07-06T03:53:58;19.30;53.80
63219;DHT22;49320;52.512;13.448;2022-07-06T03:56:24;19.30;53.70
63219;DHT22;49320;52.512;13.448;2022-07-06T03:58:59;19.30;54.00
63219;DHT22;49320;52.512;13.448;2022-07-06T04:01:27;19.30;54.10
63219;DHT22;49320;52.512;13.448;2022-07-06T04:03:55;19.30;53.70
63219;DHT22;49320;52.512;13.448;2022-07-06T04:06:22;19.30;53.70
63219;DHT22;49320;52.512;13.448;2022-07-06T04:08:49;19.30;53.70
63219;DHT22;49320;52.512;13.448;2022-07-06T04:11:15;19.30;53.80
63219;DHT22;49320;52.512;13.448;2022-07-06T04:13:42;19.30;53.70
63219;DHT22;49320;52.512;13.448;2022-07-06T04:16:09;19.30;53.70
63219;DHT22;49320;52.512;13.448;2022-07-06T04:18:36;19.30;53.70
63219;DHT22;49320;52.512;13.448;2022-07-06T04:21:03;19.30;53.70
63219;DHT22;49320;52.512;13.448;2022-07-06T04:23:31;19.30;53.70
63219;DHT22;49320;52.512;13.448;2022-07-06T04:25:58;19.40;53.90
63219;DHT22;49320;52.512;13.448;2022-07-06T04:28:25;19.40;53.80
63219;DHT22;49320;52.512;13.448;2022-07-06T04:30:52;19.40;53.70
63219;DHT22;49320;52.512;13.448;2022-07-06T04:33:19;19.50;53.70
63219;DHT22;49320;52.512;13.448;2022-07-06T04:35:46;19.50;53.50
63219;DHT22;49320;52.512;13.448;2022-07-06T04:38:14;19.60;53.40
63219;DHT22;49320;52.512;13.448;2022-07-06T04:40:41;19.60;53.40
63219;DHT22;49320;52.512;13.448;2022-07-06T04:43:07;19.60;53.50
63219;DHT22;49320;52.512;13.448;2022-07-06T04:45:34;19.70;53.40
63219;DHT22;49320;52.512;13.448;2022-07-06T04:48:01;19.70;53.50
63219;DHT22;49320;52.512;13.448;2022-07-06T04:50:29;19.70;53.40
63219;DHT22;49320;52.512;13.448;2022-07-06T04:53:01;19.70;53.20
63219;DHT22;49320;52.512;13.448;2022-07-06T04:55:29;19.70;53.20
63219;DHT22;49320;52.512;13.448;2022-07-06T04:57:56;19.70;53.30
63219;DHT22;49320;52.512;13.448;2022-07-06T05:00:22;19.80;53.30
63219;DHT22;49320;52.512;13.448;2022-07-06T05:02:49;19.80;53.20
63219;DHT22;49320;52.512;13.448;2022-07-06T05:05:16;19.80;53.10
63219;DHT22;49320;52.512;13.448;2022-07-06T05:07:43;19.80;53.30
63219;DHT22;49320;52.512;13.448;2022-07-06T05:10:11;19.70;52.90
63219;DHT22;49320;52.512;13.448;2022-07-06T05:12:38;19.90;53.30
63219;DHT22;49320;52.512;13.448;2022-07-06T05:15:05;20.00;53.20
63219;DHT22;49320;52.512;13.448;2022-07-06T05:17:33;19.90;53.20
63219;DHT22;49320;52.512;13.448;2022-07-06T05:20:00;19.90;53.10
63219;DHT22;49320;52.512;13.448;2022-07-06T05:22:27;20.00;53.60
63219;DHT22;49320;52.512;13.448;2022-07-06T05:24:54;20.10;53.40
63219;DHT22;49320;52.512;13.448;2022-07-06T05:27:21;20.20;53.30
63219;DHT22;49320;52.512;13.448;2022-07-06T05:29:48;20.40;53.10
63219;DHT22;49320;52.512;13.448;2022-07-06T05:32:14;20.60;53.10
63219;DHT22;49320;52.512;13.448;2022-07-06T05:34:41;20.80;52.90
63219;DHT22;49320;52.512;13.448;2022-07-06T05:37:08;21.00;52.40
63219;DHT22;49320;52.512;13.448;2022-07-06T05:39:35;21.20;52.10
63219;DHT22;49320;52.512;13.448;2022-07-06T05:42:07;21.40;51.80
63219;DHT22;49320;52.512;13.448;2022-07-06T05:44:34;21.60;51.50
63219;DHT22;49320;52.512;13.448;2022-07-06T05:47:01;21.70;51.30
63219;DHT22;49320;52.512;13.448;2022-07-06T05:49:47;21.80;51.10
63219;DHT22;49320;52.512;13.448;2022-07-06T05:52:32;22.00;50.80
63219;DHT22;49320;52.512;13.448;2022-07-06T05:54:59;22.10;50.50
63219;DHT22;49320;52.512;13.448;2022-07-06T05:57:26;22.10;50.40
63219;DHT22;49320;52.512;13.448;2022-07-06T05:59:52;22.20;50.40
63219;DHT22;49320;52.512;13.448;2022-07-06T06:02:20;22.30;50.30
63219;DHT22;49320;52.512;13.448;2022-07-06T06:04:46;22.40;50.10
63219;DHT22;49320;52.512;13.448;2022-07-06T06:07:13;22.50;49.90
63219;DHT22;49320;52.512;13.448;2022-07-06T06:09:40;22.60;50.30
63219;DHT22;49320;52.512;13.448;2022-07-06T06:12:07;22.70;49.70
63219;DHT22;49320;52.512;13.448;2022-07-06T06:14:34;22.70;49.50
63219;DHT22;49320;52.512;13.448;2022-07-06T06:17:01;22.80;49.40
63219;DHT22;49320;52.512;13.448;2022-07-06T06:19:28;22.80;49.40
63219;DHT22;49320;52.512;13.448;2022-07-06T06:21:55;22.80;49.20
63219;DHT22;49320;52.512;13.448;2022-07-06T06:24:22;22.80;49.20
63219;DHT22;49320;52.512;13.448;2022-07-06T06:26:50;22.80;49.00
63219;DHT22;49320;52.512;13.448;2022-07-06T06:29:17;22.80;48.90
63219;DHT22;49320;52.512;13.448;2022-07-06T06:31:45;22.80;48.90
63219;DHT22;49320;52.512;13.448;2022-07-06T06:34:12;22.90;49.00
63219;DHT22;49320;52.512;13.448;2022-07-06T06:36:38;22.90;49.00
63219;DHT22;49320;52.512;13.448;2022-07-06T06:39:05;22.80;48.80
63219;DHT22;49320;52.512;13.448;2022-07-06T06:41:32;22.80;48.80
63219;DHT22;49320;52.512;13.448;2022-07-06T06:43:59;22.80;48.90
63219;DHT22;49320;52.512;13.448;2022-07-06T06:46:26;22.80;48.90
63219;DHT22;49320;52.512;13.448;2022-07-06T06:48:53;22.60;49.00
63219;DHT22;49320;52.512;13.448;2022-07-06T06:51:20;22.60;49.00
63219;DHT22;49320;52.512;13.448;2022-07-06T06:53:47;22.60;49.00
63219;DHT22;49320;52.512;13.448;2022-07-06T06:56:14;22.70;48.80
63219;DHT22;49320;52.512;13.448;2022-07-06T06:58:41;22.50;48.60
63219;DHT22;49320;52.512;13.448;2022-07-06T07:01:30;22.50;48.50
63219;DHT22;49320;52.512;13.448;2022-07-06T07:03:59;22.60;49.00
63219;DHT22;49320;52.512;13.448;2022-07-06T07:06:26;22.50;48.40
63219;DHT22;49320;52.512;13.448;2022-07-06T07:08:53;22.50;48.30
63219;DHT22;49320;52.512;13.448;2022-07-06T07:11:23;22.40;48.30
63219;DHT22;49320;52.512;13.448;2022-07-06T07:13:50;22.40;48.30
63219;DHT22;49320;52.512;13.448;2022-07-06T07:16:17;22.30;48.30
63219;DHT22;49320;52.512;13.448;2022-07-06T07:18:44;22.30;48.50
63219;DHT22;49320;52.512;13.448;2022-07-06T07:21:11;22.30;48.60
63219;DHT22;49320;52.512;13.448;2022-07-06T07:23:38;22.30;48.70
63219;DHT22;49320;52.512;13.448;2022-07-06T07:26:05;22.20;48.60
63219;DHT22;49320;52.512;13.448;2022-07-06T07:28:33;22.20;48.60
63219;DHT22;49320;52.512;13.448;2022-07-06T07:31:00;22.20;48.70
63219;DHT22;49320;52.512;13.448;2022-07-06T07:33:27;22.20;48.70
63219;DHT22;49320;52.512;13.448;2022-07-06T07:35:54;22.20;48.40
63219;DHT22;49320;52.512;13.448;2022-07-06T07:38:21;22.20;48.10
63219;DHT22;49320;52.512;13.448;2022-07-06T07:40:48;22.20;47.60
63219;DHT22;49320;52.512;13.448;2022-07-06T07:43:15;22.20;47.40
63219;DHT22;49320;52.512;13.448;2022-07-06T07:45:42;22.20;47.50
63219;DHT22;49320;52.512;13.448;2022-07-06T07:48:09;22.10;47.20
63219;DHT22;49320;52.512;13.448;2022-07-06T07:50:36;22.20;47.30
63219;DHT22;49320;52.512;13.448;2022-07-06T07:53:03;22.10;47.20
63219;DHT22;49320;52.512;13.448;2022-07-06T07:55:29;22.10;47.10
63219;DHT22;49320;52.512;13.448;2022-07-06T07:58:12;22.10;47.30
63219;DHT22;49320;52.512;13.448;2022-07-06T08:00:39;22.20;47.40
63219;DHT22;49320;52.512;13.448;2022-07-06T08:03:06;22.20;47.00
63219;DHT22;49320;52.512;13.448;2022-07-06T08:05:32;22.30;46.50
63219;DHT22;49320;52.512;13.448;2022-07-06T08:07:59;22.30;46.60
63219;DHT22;49320;52.512;13.448;2022-07-06T08:10:26;22.30;46.50
63219;DHT22;49320;52.512;13.448;2022-07-06T08:12:53;22.40;46.60
63219;DHT22;49320;52.512;13.448;2022-07-06T08:15:20;22.50;46.70
63219;DHT22;49320;52.512;13.448;2022-07-06T08:17:47;22.60;46.60
63219;DHT22;49320;52.512;13.448;2022-07-06T08:20:14;22.70;46.40
63219;DHT22;49320;52.512;13.448;2022-07-06T08:22:43;22.70;46.20
63219;DHT22;49320;52.512;13.448;2022-07-06T08:25:10;22.70;46.20
63219;DHT22;49320;52.512;13.448;2022-07-06T08:27:37;22.80;46.30
63219;DHT22;49320;52.512;13.448;2022-07-06T08:30:05;22.90;46.10
63219;DHT22;49320;52.512;13.448;2022-07-06T08:32:32;22.90;46.10
63219;DHT22;49320;52.512;13.448;2022-07-06T08:35:19;23.00;45.80
63219;DHT22;49320;52.512;13.448;2022-07-06T08:37:46;23.00;45.50
63219;DHT22;49320;52.512;13.448;2022-07-06T08:40:13;23.00;45.40
63219;DHT22;49320;52.512;13.448;2022-07-06T08:42:41;22.90;45.40
63219;DHT22;49320;52.512;13.448;2022-07-06T08:45:09;22.90;45.70
63219;DHT22;49320;52.512;13.448;2022-07-06T08:47:36;22.90;45.80
63219;DHT22;49320;52.512;13.448;2022-07-06T08:50:05;23.00;46.00
63219;DHT22;49320;52.512;13.448;2022-07-06T08:52:32;23.00;45.50
63219;DHT22;49320;52.512;13.448;2022-07-06T08:55:00;23.00;45.40
63219;DHT22;49320;52.512;13.448;2022-07-06T08:57:29;23.00;45.20
63219;DHT22;49320;52.512;13.448;2022-07-06T08:59:56;23.00;44.60
63219;DHT22;49320;52.512;13.448;2022-07-06T09:02:27;23.00;44.30
63219;DHT22;49320;52.512;13.448;2022-07-06T09:04:55;22.80;43.70
63219;DHT22;49320;52.512;13.448;2022-07-06T09:07:27;22.80;43.70
63219;DHT22;49320;52.512;13.448;2022-07-06T09:10:18;22.70;43.50
63219;DHT22;49320;52.512;13.448;2022-07-06T09:12:46;22.70;43.40
63219;DHT22;49320;52.512;13.448;2022-07-06T09:15:14;22.70;43.40
63219;DHT22;49320;52.512;13.448;2022-07-06T09:17:42;22.60;43.20
63219;DHT22;49320;52.512;13.448;2022-07-06T09:20:11;22.70;43.20
63219;DHT22;49320;52.512;13.448;2022-07-06T09:22:40;22.70;43.10
63219;DHT22;49320;52.512;13.448;2022-07-06T09:30:15;22.80;42.70
63219;DHT22;49320;52.512;13.448;2022-07-06T09:32:48;22.90;42.70
63219;DHT22;49320;52.512;13.448;2022-07-06T09:35:28;22.90;42.70
63219;DHT22;49320;52.512;13.448;2022-07-06T09:40:37;23.10;42.20
63219;DHT22;49320;52.512;13.448;2022-07-06T09:45:43;23.20;41.70
63219;DHT22;49320;52.512;13.448;2022-07-06T09:48:13;23.20;41.80
63219;DHT22;49320;52.512;13.448;2022-07-06T09:50:46;23.20;41.50
63219;DHT22;49320;52.512;13.448;2022-07-06T09:53:25;23.30;41.20
63219;DHT22;49320;52.512;13.448;2022-07-06T09:55:55;23.20;41.00
63219;DHT22;49320;52.512;13.448;2022-07-06T09:58:28;23.20;40.90
63219;DHT22;49320;52.512;13.448;2022-07-06T10:01:28;23.20;41.20
63219;DHT22;49320;52.512;13.448;2022-07-06T10:03:56;23.20;41.10
63219;DHT22;49320;52.512;13.448;2022-07-06T10:06:25;23.20;41.30
63219;DHT22;49320;52.512;13.448;2022-07-06T10:08:54;23.30;40.80
63219;DHT22;49320;52.512;13.448;2022-07-06T10:11:22;23.30;40.80
63219;DHT22;49320;52.512;13.448;2022-07-06T10:13:57;23.30;40.80
63219;DHT22;49320;52.512;13.448;2022-07-06T10:16:25;23.30;41.00
63219;DHT22;49320;52.512;13.448;2022-07-06T10:18:52;23.30;41.10
63219;DHT22;49320;52.512;13.448;2022-07-06T10:21:22;23.40;41.90
63219;DHT22;49320;52.512;13.448;2022-07-06T10:23:50;23.20;41.20
63219;DHT22;49320;52.512;13.448;2022-07-06T10:26:18;23.20;41.20
63219;DHT22;49320;52.512;13.448;2022-07-06T10:28:45;23.20;41.20
63219;DHT22;49320;52.512;13.448;2022-07-06T10:31:14;23.20;41.50
63219;DHT22;49320;52.512;13.448;2022-07-06T10:33:43;23.20;41.50
63219;DHT22;49320;52.512;13.448;2022-07-06T10:36:11;23.20;41.70
63219;DHT22;49320;52.512;13.448;2022-07-06T10:38:39;23.30;41.90
63219;DHT22;49320;52.512;13.448;2022-07-06T10:41:08;23.30;42.00
63219;DHT22;49320;52.512;13.448;2022-07-06T10:43:42;23.30;42.00
63219;DHT22;49320;52.512;13.448;2022-07-06T10:46:15;23.40;42.00
63219;DHT22;49320;52.512;13.448;2022-07-06T10:48:45;23.40;42.00
63219;DHT22;49320;52.512;13.448;2022-07-06T10:51:23;23.50;42.00
63219;DHT22;49320;52.512;13.448;2022-07-06T10:54:10;23.50;41.40
63219;DHT22;49320;52.512;13.448;2022-07-06T10:56:42;23.50;41.50
63219;DHT22;49320;52.512;13.448;2022-07-06T10:59:16;23.60;41.50
63219;DHT22;49320;52.512;13.448;2022-07-06T11:02:12;23.70;41.40
63219;DHT22;49320;52.512;13.448;2022-07-06T11:04:41;23.70;40.90
63219;DHT22;49320;52.512;13.448;2022-07-06T11:07:19;23.80;41.20
63219;DHT22;49320;52.512;13.448;2022-07-06T11:09:58;23.80;41.20
63219;DHT22;49320;52.512;13.448;2022-07-06T11:12:26;23.90;41.00
63219;DHT22;49320;52.512;13.448;2022-07-06T11:14:53;23.90;41.00
63219;DHT22;49320;52.512;13.448;2022-07-06T11:17:21;24.00;40.90
63219;DHT22;49320;52.512;13.448;2022-07-06T11:19:50;24.00;40.80
63219;DHT22;49320;52.512;13.448;2022-07-06T11:22:22;24.20;40.90
63219;DHT22;49320;52.512;13.448;2022-07-06T11:24:51;24.20;41.00
63219;DHT22;49320;52.512;13.448;2022-07-06T11:27:18;24.20;40.60
63219;DHT22;49320;52.512;13.448;2022-07-06T11:29:45;24.30;40.80
63219;DHT22;49320;52.512;13.448;2022-07-06T11:32:12;24.40;40.70
63219;DHT22;49320;52.512;13.448;2022-07-06T11:34:43;24.50;40.70
63219;DHT22;49320;52.512;13.448;2022-07-06T11:37:13;24.40;40.70
63219;DHT22;49320;52.512;13.448;2022-07-06T11:39:42;24.50;40.70
63219;DHT22;49320;52.512;13.448;2022-07-06T11:42:12;24.50;40.50
63219;DHT22;49320;52.512;13.448;2022-07-06T11:44:40;24.40;40.20
63219;DHT22;49320;52.512;13.448;2022-07-06T11:47:09;24.30;40.10
63219;DHT22;49320;52.512;13.448;2022-07-06T11:49:39;24.30;39.70
63219;DHT22;49320;52.512;13.448;2022-07-06T11:52:12;24.20;39.60
63219;DHT22;49320;52.512;13.448;2022-07-06T11:54:41;24.20;39.40
63219;DHT22;49320;52.512;13.448;2022-07-06T11:57:11;24.20;39.30
63219;DHT22;49320;52.512;13.448;2022-07-06T11:59:40;24.20;39.50
63219;DHT22;49320;52.512;13.448;2022-07-06T12:04:39;24.10;39.50
63219;DHT22;49320;52.512;13.448;2022-07-06T12:07:12;24.10;39.50
63219;DHT22;49320;52.512;13.448;2022-07-06T12:09:43;24.10;39.40
63219;DHT22;49320;52.512;13.448;2022-07-06T12:12:11;24.10;39.50
63219;DHT22;49320;52.512;13.448;2022-07-06T12:14:40;24.10;39.70
63219;DHT22;49320;52.512;13.448;2022-07-06T12:17:09;24.20;39.90
63219;DHT22;49320;52.512;13.448;2022-07-06T12:19:38;24.20;39.90
63219;DHT22;49320;52.512;13.448;2022-07-06T12:22:06;24.20;39.70
63219;DHT22;49320;52.512;13.448;2022-07-06T12:24:35;24.20;39.90
63219;DHT22;49320;52.512;13.448;2022-07-06T12:27:16;24.20;39.90
63219;DHT22;49320;52.512;13.448;2022-07-06T12:29:45;24.10;40.00
63219;DHT22;49320;52.512;13.448;2022-07-06T12:32:21;24.10;40.00
63219;DHT22;49320;52.512;13.448;2022-07-06T12:35:07;24.10;40.00
63219;DHT22;49320;52.512;13.448;2022-07-06T12:37:35;24.10;39.90
63219;DHT22;49320;52.512;13.448;2022-07-06T12:40:13;24.00;40.00
63219;DHT22;49320;52.512;13.448;2022-07-06T12:42:47;24.00;40.00
63219;DHT22;49320;52.512;13.448;2022-07-06T12:45:15;24.00;40.10
63219;DHT22;49320;52.512;13.448;2022-07-06T12:48:05;23.90;40.10
63219;DHT22;49320;52.512;13.448;2022-07-06T12:50:33;23.90;40.10
63219;DHT22;49320;52.512;13.448;2022-07-06T12:53:02;24.00;40.10
63219;DHT22;49320;52.512;13.448;2022-07-06T12:55:31;24.00;40.00
63219;DHT22;49320;52.512;13.448;2022-07-06T12:57:58;24.00;40.00
63219;DHT22;49320;52.512;13.448;2022-07-06T13:00:25;24.10;40.70
63219;DHT22;49320;52.512;13.448;2022-07-06T13:02:53;24.10;40.00
63219;DHT22;49320;52.512;13.448;2022-07-06T13:05:36;24.20;40.00
63219;DHT22;49320;52.512;13.448;2022-07-06T13:08:05;24.30;39.90
63219;DHT22;49320;52.512;13.448;2022-07-06T13:10:32;24.30;40.00
63219;DHT22;49320;52.512;13.448;2022-07-06T13:13:00;24.30;39.80
63219;DHT22;49320;52.512;13.448;2022-07-06T13:15:27;24.30;39.80
63219;DHT22;49320;52.512;13.448;2022-07-06T13:17:53;24.40;39.80
63219;DHT22;49320;52.512;13.448;2022-07-06T13:20:20;24.40;40.00
63219;DHT22;49320;52.512;13.448;2022-07-06T13:22:47;24.40;40.00
63219;DHT22;49320;52.512;13.448;2022-07-06T13:25:14;24.50;40.10
63219;DHT22;49320;52.512;13.448;2022-07-06T13:27:41;24.60;40.00
63219;DHT22;49320;52.512;13.448;2022-07-06T13:30:08;24.70;39.90
63219;DHT22;49320;52.512;13.448;2022-07-06T13:32:36;24.80;39.60
63219;DHT22;49320;52.512;13.448;2022-07-06T13:35:04;24.80;39.40
63219;DHT22;49320;52.512;13.448;2022-07-06T13:37:30;24.90;39.10
63219;DHT22;49320;52.512;13.448;2022-07-06T13:39:57;24.90;39.20
63219;DHT22;49320;52.512;13.448;2022-07-06T13:42:24;25.00;39.20
63219;DHT22;49320;52.512;13.448;2022-07-06T13:44:51;25.10;38.80
63219;DHT22;49320;52.512;13.448;2022-07-06T13:47:18;25.00;38.90
63219;DHT22;49320;52.512;13.448;2022-07-06T13:49:45;25.10;38.80
63219;DHT22;49320;52.512;13.448;2022-07-06T13:52:14;25.10;38.80
63219;DHT22;49320;52.512;13.448;2022-07-06T13:54:41;25.10;38.30
63219;DHT22;49320;52.512;13.448;2022-07-06T13:57:09;25.10;38.00
63219;DHT22;49320;52.512;13.448;2022-07-06T13:59:35;25.10;37.90
63219;DHT22;49320;52.512;13.448;2022-07-06T14:02:02;25.10;37.70
63219;DHT22;49320;52.512;13.448;2022-07-06T14:04:30;25.10;37.50
63219;DHT22;49320;52.512;13.448;2022-07-06T14:06:57;25.00;37.40
63219;DHT22;49320;52.512;13.448;2022-07-06T14:09:23;24.90;37.40
63219;DHT22;49320;52.512;13.448;2022-07-06T14:11:50;25.00;37.70
63219;DHT22;49320;52.512;13.448;2022-07-06T14:14:17;24.90;37.90
63219;DHT22;49320;52.512;13.448;2022-07-06T14:16:44;24.90;37.90
63219;DHT22;49320;52.512;13.448;2022-07-06T14:19:11;24.80;37.80
63219;DHT22;49320;52.512;13.448;2022-07-06T14:21:46;24.90;37.60
63219;DHT22;49320;52.512;13.448;2022-07-06T14:24:13;24.90;37.30
63219;DHT22;49320;52.512;13.448;2022-07-06T14:26:40;24.90;37.10
63219;DHT22;49320;52.512;13.448;2022-07-06T14:29:07;24.90;37.30
63219;DHT22;49320;52.512;13.448;2022-07-06T14:31:34;24.90;37.40
63219;DHT22;49320;52.512;13.448;2022-07-06T14:34:01;24.90;37.50
63219;DHT22;49320;52.512;13.448;2022-07-06T14:36:28;24.80;37.50
63219;DHT22;49320;52.512;13.448;2022-07-06T14:38:54;24.80;37.60
63219;DHT22;49320;52.512;13.448;2022-07-06T14:41:21;24.90;37.90
63219;DHT22;49320;52.512;13.448;2022-07-06T14:43:48;24.90;38.00
63219;DHT22;49320;52.512;13.448;2022-07-06T14:46:15;24.90;37.90
63219;DHT22;49320;52.512;13.448;2022-07-06T14:48:42;24.80;37.90
63219;DHT22;49320;52.512;13.448;2022-07-06T14:51:09;24.80;37.90
63219;DHT22;49320;52.512;13.448;2022-07-06T14:53:37;24.80;38.00
63219;DHT22;49320;52.512;13.448;2022-07-06T14:56:04;24.80;38.10
63219;DHT22;49320;52.512;13.448;2022-07-06T14:58:31;24.70;38.20
63219;DHT22;49320;52.512;13.448;2022-07-06T15:00:58;24.70;38.10
63219;DHT22;49320;52.512;13.448;2022-07-06T15:03:26;24.60;38.10
63219;DHT22;49320;52.512;13.448;2022-07-06T15:05:54;24.50;38.30
63219;DHT22;49320;52.512;13.448;2022-07-06T15:08:21;24.50;38.40
63219;DHT22;49320;52.512;13.448;2022-07-06T15:10:48;24.40;38.50
63219;DHT22;49320;52.512;13.448;2022-07-06T15:13:15;24.30;38.70
63219;DHT22;49320;52.512;13.448;2022-07-06T15:15:43;24.20;38.80
63219;DHT22;49320;52.512;13.448;2022-07-06T15:18:23;24.10;38.90
63219;DHT22;49320;52.512;13.448;2022-07-06T15:20:51;24.00;39.10
63219;DHT22;49320;52.512;13.448;2022-07-06T15:23:18;23.90;39.20
63219;DHT22;49320;52.512;13.448;2022-07-06T15:25:45;23.90;39.40
63219;DHT22;49320;52.512;13.448;2022-07-06T15:28:21;23.80;39.60
63219;DHT22;49320;52.512;13.448;2022-07-06T15:30:51;23.80;39.80
63219;DHT22;49320;52.512;13.448;2022-07-06T15:33:18;23.70;39.90
63219;DHT22;49320;52.512;13.448;2022-07-06T15:35:45;23.70;40.10
63219;DHT22;49320;52.512;13.448;2022-07-06T15:38:14;23.60;40.20
63219;DHT22;49320;52.512;13.448;2022-07-06T15:40:41;23.60;40.30